Time;durP1;ratioP1;P1;durP2;ratioP2;P2;SDS_P1;SDS_P2;PMS_P1;PMS_P2;Temp;Humidity;BMP_temperature;BMP_pressure;BME280_temperature;BME280_humidity;BME280_pressure;Samples;Min_cycle;Max_cycle;Signal;HPM_P1;HPM_P2
2023/04/23 00:02:01;;;;;;;7.35;6.30;;;;;;;16.16;44.14;100154.81;7396673;19;20014;-67
2023/04/23 00:04:32;;;;;;;11.75;6.95;;;;;;;16.14;44.45;100152.25;7397165;19;20026;-67
2023/04/23 00:07:02;;;;;;;8.98;6.15;;;;;;;16.11;44.59;100147.97;7398729;19;20481;-67
2023/04/23 00:09:32;;;;;;;8.48;6.43;;;;;;;16.11;44.48;100149.75;7397332;19;20030;-67
2023/04/23 00:12:01;;;;;;;10.70;6.10;;;;;;;16.09;44.91;100143.69;7399328;19;20021;-67
2023/04/23 00:14:33;;;;;;;10.15;6.43;;;;;;;16.08;44.87;100142.84;7396799;19;20074;-67
2023/04/23 00:17:01;;;;;;;8.43;5.97;;;;;;;16.06;44.88;100150.03;7398680;19;20078;-67
2023/04/23 00:19:30;;;;;;;10.27;6.80;;;;;;;16.03;45.36;100142.22;7398306;19;20482;-67
2023/04/23 00:21:58;;;;;;;10.10;6.60;;;;;;;16.00;45.17;100138.88;7398797;19;20014;-67
2023/04/23 00:24:27;;;;;;;7.82;6.65;;;;;;;15.97;45.30;100139.91;7396717;19;20026;-67
2023/04/23 00:26:55;;;;;;;8.32;6.47;;;;;;;15.93;45.58;100130.44;7398336;19;20496;-67
2023/04/23 00:29:23;;;;;;;9.55;6.78;;;;;;;15.91;46.04;100138.47;7396897;19;20105;-68
2023/04/23 00:31:54;;;;;;;9.85;6.72;;;;;;;15.88;46.46;100135.97;7398490;19;20025;-68
2023/04/23 00:34:23;;;;;;;11.20;6.97;;;;;;;15.84;46.17;100130.94;7396333;19;20421;-68
2023/04/23 00:36:51;;;;;;;11.10;7.70;;;;;;;15.81;46.85;100131.94;7398335;19;20024;-68
2023/04/23 00:39:20;;;;;;;10.15;7.28;;;;;;;15.77;47.29;100133.00;7396065;19;20029;-68
2023/04/23 00:42:09;;;;;;;10.88;7.38;;;;;;;15.73;48.58;100136.75;7395392;19;20011;-68
2023/04/23 00:44:37;;;;;;;7.95;6.43;;;;;;;15.69;47.71;100140.50;7396161;19;20032;-68
2023/04/23 00:47:09;;;;;;;9.90;7.20;;;;;;;15.64;48.82;100133.69;7398065;19;20023;-68
2023/04/23 00:49:38;;;;;;;11.52;7.72;;;;;;;15.62;48.35;100132.06;7396550;19;20014;-68
2023/04/23 00:52:07;;;;;;;8.88;7.82;;;;;;;15.58;48.41;100131.34;7397433;19;20430;-68
2023/04/23 00:54:35;;;;;;;10.68;7.25;;;;;;;15.57;48.75;100131.41;7395482;19;20476;-68
2023/04/23 00:57:04;;;;;;;8.27;7.18;;;;;;;15.54;49.19;100126.31;7397386;19;20020;-68
2023/04/23 00:59:33;;;;;;;11.63;7.68;;;;;;;15.51;49.50;100129.97;7395858;19;20014;-68
2023/04/23 01:02:02;;;;;;;8.57;7.22;;;;;;;15.47;49.72;100131.91;7396432;19;20078;-67
2023/04/23 01:04:34;;;;;;;11.73;7.65;;;;;;;15.44;49.98;100134.72;7395406;19;20018;-68
2023/04/23 01:07:03;;;;;;;9.82;7.22;;;;;;;15.40;50.21;100135.78;7397664;19;20033;-68
2023/04/23 01:09:32;;;;;;;10.63;6.97;;;;;;;15.36;50.52;100131.59;7395325;19;20023;-68
2023/04/23 01:12:03;;;;;;;13.77;7.55;;;;;;;15.34;50.71;100130.81;7395300;19;20037;-68
2023/04/23 01:14:32;;;;;;;11.43;7.53;;;;;;;15.30;51.07;100124.88;7395660;19;20045;-68
2023/04/23 01:17:00;;;;;;;11.98;7.30;;;;;;;15.27;51.22;100127.66;7395036;19;20014;-68
2023/04/23 01:19:29;;;;;;;9.90;6.65;;;;;;;15.25;51.69;100128.66;7396288;19;20377;-68
2023/04/23 01:22:02;;;;;;;12.00;7.47;;;;;;;15.22;53.24;100131.47;7396553;19;20015;-68
2023/04/23 01:24:33;;;;;;;10.30;7.40;;;;;;;15.17;53.59;100133.50;7395036;19;20022;-68
2023/04/23 01:27:02;;;;;;;10.50;7.97;;;;;;;15.10;53.71;100130.28;7396860;19;20078;-69
2023/04/23 01:29:31;;;;;;;9.75;7.60;;;;;;;14.97;55.09;100133.56;7394676;19;20042;-68
2023/04/23 01:32:01;;;;;;;13.10;8.25;;;;;;;14.82;56.54;100134.31;7396259;19;20022;-68
2023/04/23 01:34:31;;;;;;;10.65;8.38;;;;;;;14.60;58.97;100124.75;7394046;19;20021;-68
2023/04/23 01:37:00;;;;;;;11.85;9.50;;;;;;;14.34;61.86;100120.72;7395770;19;20021;-68
2023/04/23 01:39:28;;;;;;;15.25;10.35;;;;;;;14.07;64.71;100115.81;7396022;19;20037;-68
2023/04/23 01:42:00;;;;;;;12.82;10.68;;;;;;;13.83;67.31;100116.00;7394027;19;20018;-68
2023/04/23 01:44:28;;;;;;;13.70;11.05;;;;;;;13.64;69.28;100110.72;7394521;19;20034;-68
2023/04/23 01:46:57;;;;;;;15.18;10.90;;;;;;;13.51;70.65;100114.84;7394109;19;20022;-68
2023/04/23 01:49:26;;;;;;;14.27;11.02;;;;;;;13.39;72.29;100113.59;7394342;19;20513;-68
2023/04/23 01:51:54;;;;;;;13.65;10.93;;;;;;;13.30;73.50;100108.69;7395657;19;20014;-68
2023/04/23 01:54:22;;;;;;;14.45;11.23;;;;;;;13.20;74.59;100109.09;7393535;19;20098;-68
2023/04/23 01:56:53;;;;;;;12.05;10.75;;;;;;;13.12;75.68;100108.56;7395611;19;20031;-68
2023/04/23 01:59:24;;;;;;;13.55;11.45;;;;;;;13.05;76.44;100109.72;7395918;19;20011;-68
2023/04/23 02:01:53;;;;;;;17.05;11.52;;;;;;;12.98;77.30;100109.13;7395542;19;20035;-68
2023/04/23 02:04:22;;;;;;;18.17;12.02;;;;;;;12.92;77.80;100105.91;7393591;19;20033;-68
2023/04/23 02:06:52;;;;;;;15.90;11.95;;;;;;;12.85;78.26;100108.78;7395226;19;20035;-68
2023/04/23 02:09:21;;;;;;;11.88;10.65;;;;;;;12.79;78.86;100100.28;7394775;19;20021;-68
2023/04/23 02:11:49;;;;;;;12.48;10.73;;;;;;;12.74;79.22;100103.13;7393295;19;20022;-68
2023/04/23 02:14:18;;;;;;;16.67;11.60;;;;;;;12.71;79.60;100104.09;7397364;19;20022;-68
2023/04/23 02:16:50;;;;;;;13.80;10.93;;;;;;;12.67;79.90;100097.22;7402711;19;20011;-68
2023/04/23 02:19:18;;;;;;;16.33;11.38;;;;;;;12.64;80.41;100097.38;7403014;19;20031;-68
2023/04/23 02:21:47;;;;;;;14.38;11.05;;;;;;;12.62;80.65;100093.94;7399533;19;20022;-67
2023/04/23 02:24:15;;;;;;;13.55;11.25;;;;;;;12.63;81.29;100094.81;7399874;19;20014;-68
2023/04/23 02:26:44;;;;;;;13.82;11.43;;;;;;;12.62;81.76;100098.34;7402022;19;20014;-68
2023/04/23 02:29:12;;;;;;;15.90;11.57;;;;;;;12.61;82.18;100094.00;7400782;19;20019;-68
2023/04/23 02:31:40;;;;;;;14.95;11.95;;;;;;;12.59;82.23;100096.69;7399014;19;20507;-68
2023/04/23 02:34:11;;;;;;;14.55;12.15;;;;;;;12.59;82.53;100090.59;7399903;19;20081;-68
2023/04/23 02:36:40;;;;;;;15.50;11.98;;;;;;;12.58;82.85;100099.41;7402407;19;20019;-68
2023/04/23 02:39:08;;;;;;;14.95;11.32;;;;;;;12.57;83.03;100095.88;7401932;19;20078;-68
2023/04/23 02:41:37;;;;;;;15.98;11.20;;;;;;;12.57;83.21;100089.78;7401778;19;20074;-68
2023/04/23 02:44:05;;;;;;;15.48;11.45;;;;;;;12.57;83.42;100090.63;7399082;19;20422;-68
2023/04/23 02:46:36;;;;;;;16.80;11.43;;;;;;;12.58;83.82;100089.72;7401687;19;20083;-68
2023/04/23 02:49:05;;;;;;;13.38;11.20;;;;;;;12.59;83.97;100090.59;7400849;19;20014;-68
2023/04/23 02:51:36;;;;;;;13.10;11.57;;;;;;;12.59;84.05;100085.31;7398910;19;20015;-68
2023/04/23 02:54:05;;;;;;;12.18;10.88;;;;;;;12.60;83.96;100081.75;7398891;19;20070;-68
2023/04/23 02:56:33;;;;;;;15.23;11.07;;;;;;;12.61;84.19;100078.22;7398657;19;20025;-68
2023/04/23 02:59:02;;;;;;;16.58;11.32;;;;;;;12.63;84.17;100079.00;7401045;19;20018;-68
2023/04/23 03:01:30;;;;;;;15.80;11.43;;;;;;;12.64;84.21;100078.94;7400834;19;20010;-68
2023/04/23 03:03:59;;;;;;;12.55;10.45;;;;;;;12.66;84.16;100087.66;7398874;19;20481;-68
2023/04/23 03:06:28;;;;;;;15.52;11.43;;;;;;;12.66;84.39;100082.38;7398443;19;20015;-68
2023/04/23 03:08:59;;;;;;;16.48;11.45;;;;;;;12.65;84.16;100083.28;7399962;19;20477;-68
2023/04/23 03:11:27;;;;;;;14.55;10.68;;;;;;;12.64;84.36;100084.22;7397865;19;20506;-68
2023/04/23 03:13:56;;;;;;;16.35;12.57;;;;;;;12.64;84.59;100080.72;7399013;19;20082;-68
2023/04/23 03:16:24;;;;;;;17.42;11.30;;;;;;;12.64;84.75;100080.72;7400648;19;20082;-68
2023/04/23 03:18:53;;;;;;;14.18;10.85;;;;;;;12.63;84.88;100079.84;7400395;19;20090;-68
2023/04/23 03:21:21;;;;;;;14.95;11.05;;;;;;;12.62;85.11;100083.41;7400231;19;20082;-67
2023/04/23 03:23:49;;;;;;;14.63;10.82;;;;;;;12.61;85.10;100083.47;7398141;19;20485;-68
2023/04/23 03:26:20;;;;;;;13.43;10.20;;;;;;;12.60;85.21;100085.25;7400239;19;20029;-68
2023/04/23 03:28:49;;;;;;;14.32;10.60;;;;;;;12.60;85.39;100081.75;7399793;19;20544;-68
2023/04/23 03:31:17;;;;;;;12.27;10.00;;;;;;;12.59;85.35;100080.91;7400183;19;20021;-68
2023/04/23 03:33:46;;;;;;;12.32;9.95;;;;;;;12.61;85.82;100086.09;7398756;19;20032;-68
2023/04/23 03:36:14;;;;;;;13.38;10.10;;;;;;;12.62;85.63;100075.50;7397297;19;20018;-68
2023/04/23 03:38:42;;;;;;;14.68;10.65;;;;;;;12.64;85.68;100075.47;7400030;19;20041;-68
2023/04/23 03:41:11;;;;;;;13.23;10.82;;;;;;;12.65;85.99;100075.41;7396982;19;20466;-68
2023/04/23 03:43:42;;;;;;;12.75;10.30;;;;;;;12.66;86.30;100073.59;7396658;19;20022;-68
2023/04/23 03:46:10;;;;;;;12.30;10.93;;;;;;;12.67;86.59;100075.31;7399388;19;20013;-68
2023/04/23 03:48:39;;;;;;;13.63;10.93;;;;;;;12.66;86.41;100076.25;7399597;19;20368;-68
2023/04/23 03:51:07;;;;;;;13.38;10.63;;;;;;;12.65;86.56;100078.03;7397249;19;20018;-68
2023/04/23 03:53:36;;;;;;;12.68;10.32;;;;;;;12.63;86.45;100071.97;7397788;19;20090;-68
2023/04/23 03:56:04;;;;;;;15.48;11.57;;;;;;;12.62;86.86;100072.03;7398897;19;20366;-68
2023/04/23 03:58:33;;;;;;;12.88;9.45;;;;;;;12.62;86.97;100066.78;7396738;19;20015;-68
2023/04/23 04:01:04;;;;;;;11.45;10.25;;;;;;;12.63;86.88;100068.50;7399310;19;20039;-68
2023/04/23 04:03:32;;;;;;;12.25;9.70;;;;;;;12.63;87.13;100065.84;7397721;19;20015;-68
2023/04/23 04:06:01;;;;;;;12.98;9.90;;;;;;;12.65;87.24;100064.00;7398597;19;20022;-68
2023/04/23 04:08:29;;;;;;;13.15;9.80;;;;;;;12.66;87.30;100065.72;7396810;19;20022;-68
2023/04/23 04:10:58;;;;;;;14.05;9.88;;;;;;;12.67;87.41;100064.81;7396422;19;20078;-68
2023/04/23 04:13:26;;;;;;;13.13;9.90;;;;;;;12.67;87.16;100072.69;7396182;19;20115;-68
2023/04/23 04:15:55;;;;;;;14.38;10.68;;;;;;;12.68;87.35;100074.41;7398704;19;20035;-68
2023/04/23 04:18:26;;;;;;;12.30;9.65;;;;;;;12.68;87.46;100077.88;7396548;19;20111;-68
2023/04/23 04:20:55;;;;;;;10.80;9.70;;;;;;;12.67;87.62;100080.59;7399046;19;20027;-68
2023/04/23 04:23:23;;;;;;;12.32;8.75;;;;;;;12.66;87.61;100073.59;7397528;19;20023;-68
2023/04/23 04:25:55;;;;;;;10.45;9.35;;;;;;;12.67;87.67;100075.31;7398104;19;20031;-67
2023/04/23 04:28:24;;;;;;;13.45;8.95;;;;;;;12.68;87.62;100079.69;7396064;19;20077;-68
2023/04/23 04:30:52;;;;;;;12.90;9.55;;;;;;;12.68;87.63;100077.03;7396563;19;20018;-68
2023/04/23 04:33:22;;;;;;;11.88;9.35;;;;;;;12.69;87.72;100091.91;7396954;19;20018;-68
2023/04/23 04:35:53;;;;;;;11.93;9.18;;;;;;;12.69;87.71;100087.50;7396562;19;20022;-68
2023/04/23 04:38:22;;;;;;;14.43;10.18;;;;;;;12.70;87.70;100088.34;7399633;19;20014;-68
2023/04/23 04:40:50;;;;;;;10.43;9.07;;;;;;;12.70;87.61;100096.25;7395972;19;20022;-68
2023/04/23 04:43:19;;;;;;;11.88;9.68;;;;;;;12.71;87.91;100095.31;7396387;19;20014;-68
2023/04/23 04:45:47;;;;;;;13.65;9.48;;;;;;;12.68;88.03;100101.56;7397815;19;20019;-68
2023/04/23 04:48:16;;;;;;;11.63;9.23;;;;;;;12.68;88.16;100098.09;7397856;19;20031;-68
2023/04/23 04:50:45;;;;;;;10.48;9.45;;;;;;;12.67;88.40;100096.38;7396402;19;20018;-68
2023/04/23 04:53:16;;;;;;;13.77;10.57;;;;;;;12.65;88.21;100103.47;7396932;19;20029;-67
2023/04/23 04:55:45;;;;;;;13.32;10.15;;;;;;;12.63;88.63;100107.97;7397196;19;20011;-68
2023/04/23 04:58:13;;;;;;;16.30;9.73;;;;;;;12.61;88.92;100099.25;7397297;19;20010;-68
2023/04/23 05:00:42;;;;;;;13.85;9.88;;;;;;;12.60;88.87;100108.94;7397370;19;20035;-68
2023/04/23 05:03:10;;;;;;;12.23;10.00;;;;;;;12.58;89.27;100102.03;7396644;19;20021;-68
2023/04/23 05:05:39;;;;;;;13.52;10.10;;;;;;;12.57;89.43;100105.56;7397232;19;20026;-68
2023/04/23 05:08:08;;;;;;;13.02;9.95;;;;;;;12.57;89.38;100105.56;7396838;19;20014;-68
2023/04/23 05:10:39;;;;;;;12.13;9.57;;;;;;;12.55;89.58;100103.00;7395891;19;20025;-69
2023/04/23 05:13:08;;;;;;;13.27;9.32;;;;;;;12.58;89.64;100104.66;7394887;19;20010;-68
2023/04/23 05:15:36;;;;;;;13.23;9.93;;;;;;;12.58;89.71;100100.25;7396443;19;20496;-68
2023/04/23 05:18:06;;;;;;;14.13;11.00;;;;;;;12.59;89.92;100103.75;7395027;19;20081;-69
2023/04/23 05:20:35;;;;;;;11.48;9.40;;;;;;;12.61;90.12;100109.78;7396487;19;20502;-68
2023/04/23 05:23:03;;;;;;;13.57;10.40;;;;;;;12.61;90.10;100100.13;7395610;19;20035;-68
2023/04/23 05:25:34;;;;;;;11.65;10.02;;;;;;;12.64;90.20;100094.72;7396039;19;20485;-68
2023/04/23 05:28:07;;;;;;;13.10;10.30;;;;;;;12.66;90.33;100097.28;7396823;19;20045;-68
2023/04/23 05:30:35;;;;;;;11.20;10.00;;;;;;;12.67;90.37;100099.84;7395244;19;20025;-68
2023/04/23 05:33:04;;;;;;;12.80;10.40;;;;;;;12.71;90.51;100100.59;7395725;19;20026;-66
2023/04/23 05:35:33;;;;;;;13.70;10.18;;;;;;;12.73;90.12;100108.44;7394455;19;20014;-66
2023/04/23 05:38:01;;;;;;;13.27;10.05;;;;;;;12.76;90.56;100101.25;7395755;19;20427;-66
2023/04/23 05:40:36;;;;;;;11.68;9.68;;;;;;;12.79;90.58;100109.03;7395734;19;20022;-66
2023/04/23 05:43:08;;;;;;;12.35;9.07;;;;;;;12.80;90.42;100107.25;7393356;19;20015;-66
2023/04/23 05:45:36;;;;;;;14.93;10.10;;;;;;;12.82;90.36;100111.53;7396254;19;20026;-66
2023/04/23 05:48:05;;;;;;;11.65;9.68;;;;;;;12.84;90.45;100109.72;7395566;19;20018;-65
2023/04/23 05:50:33;;;;;;;11.18;9.80;;;;;;;12.85;90.19;100106.16;7393540;19;20360;-66
2023/04/23 05:53:02;;;;;;;15.60;10.65;;;;;;;12.87;90.45;100112.19;7395112;19;20014;-66
2023/04/23 05:55:30;;;;;;;11.27;9.63;;;;;;;12.90;90.27;100121.75;7393502;19;20031;-66
2023/04/23 05:57:58;;;;;;;12.57;10.25;;;;;;;12.91;90.36;100115.56;7395480;19;20018;-67
2023/04/23 06:00:30;;;;;;;10.40;9.30;;;;;;;12.93;90.17;100128.66;7395370;19;20023;-67
2023/04/23 06:02:58;;;;;;;12.73;9.77;;;;;;;12.94;90.30;100120.72;7394369;19;20366;-69
2023/04/23 06:05:34;;;;;;;11.13;10.02;;;;;;;12.93;90.55;100128.66;7394334;19;20035;-69
2023/04/23 06:08:03;;;;;;;11.52;9.63;;;;;;;12.93;90.33;100128.66;7395328;19;20025;-69
2023/04/23 06:10:32;;;;;;;13.68;10.27;;;;;;;12.90;90.68;100131.44;7394986;19;20498;-68
2023/04/23 06:13:00;;;;;;;13.15;10.13;;;;;;;12.86;91.18;100131.56;7394542;19;20026;-67
2023/04/23 06:15:31;;;;;;;12.57;10.90;;;;;;;12.82;91.45;100132.59;7394657;19;20024;-67
2023/04/23 06:18:00;;;;;;;12.77;10.98;;;;;;;12.78;91.67;100133.66;7393082;19;20023;-67
2023/04/23 06:20:28;;;;;;;13.88;11.52;;;;;;;12.75;92.41;100133.78;7394517;19;20485;-67
2023/04/23 06:22:57;;;;;;;13.45;11.18;;;;;;;12.72;92.53;100144.41;7392394;19;20494;-67
2023/04/23 06:25:25;;;;;;;13.60;11.50;;;;;;;12.68;93.08;100145.47;7392353;19;20382;-67
2023/04/23 06:27:53;;;;;;;14.27;12.77;;;;;;;12.64;93.33;100142.09;7394151;19;20015;-67
2023/04/23 06:30:22;;;;;;;14.25;12.27;;;;;;;12.61;93.64;100147.50;7394153;19;20138;-68
2023/04/23 06:32:54;;;;;;;14.52;11.98;;;;;;;12.57;93.99;100145.88;7392403;19;20019;-64
2023/04/23 06:35:22;;;;;;;13.40;11.95;;;;;;;12.53;94.76;100144.31;7394803;19;20015;-64
2023/04/23 06:37:51;;;;;;;14.35;12.85;;;;;;;12.50;95.05;100141.81;7394392;19;20026;-65
2023/04/23 06:40:19;;;;;;;15.30;13.23;;;;;;;12.45;95.70;100135.84;7393895;19;20498;-65
2023/04/23 06:42:48;;;;;;;14.93;13.15;;;;;;;12.42;95.98;100141.25;7391734;19;20014;-65
2023/04/23 06:45:16;;;;;;;15.30;12.85;;;;;;;12.39;96.26;100144.84;7394505;19;20019;-65
2023/04/23 06:47:45;;;;;;;14.40;13.00;;;;;;;12.37;96.68;100144.91;7393916;19;20014;-64
2023/04/23 06:50:16;;;;;;;16.90;13.02;;;;;;;12.38;96.76;100141.38;7393601;19;20082;-64
2023/04/23 06:52:45;;;;;;;16.17;13.93;;;;;;;12.36;97.45;100145.81;7392151;19;20030;-64
2023/04/23 06:55:14;;;;;;;14.98;13.32;;;;;;;12.35;97.67;100141.47;7393895;19;20022;-68
2023/04/23 06:57:42;;;;;;;16.17;13.93;;;;;;;12.35;97.78;100146.72;7391354;19;20017;-69
2023/04/23 07:00:13;;;;;;;19.38;14.32;;;;;;;12.34;98.14;100137.13;7397375;19;20022;-69
2023/04/23 07:02:41;;;;;;;15.13;13.52;;;;;;;12.34;98.19;100138.91;7400136;19;20496;-69
2023/04/23 07:05:11;;;;;;;16.73;14.45;;;;;;;12.33;98.38;100142.44;7400899;19;20023;-69
2023/04/23 07:07:42;;;;;;;19.02;14.40;;;;;;;12.33;98.62;100142.44;7400986;19;20018;-70
2023/04/23 07:10:12;;;;;;;16.20;13.70;;;;;;;12.33;98.77;100131.94;7402515;19;20015;-69
2023/04/23 07:12:41;;;;;;;17.92;14.48;;;;;;;12.34;99.04;100131.00;7400212;19;20014;-69
2023/04/23 07:15:11;;;;;;;15.15;13.63;;;;;;;12.33;99.20;100131.94;7400553;19;20015;-68
2023/04/23 07:17:39;;;;;;;16.13;13.80;;;;;;;12.35;99.06;100130.94;7400419;19;20014;-67
2023/04/23 07:20:10;;;;;;;16.17;14.30;;;;;;;12.37;99.24;100138.78;7401872;19;20014;-68
2023/04/23 07:22:38;;;;;;;18.02;13.80;;;;;;;12.40;99.52;100143.94;7397423;19;20014;-69
2023/04/23 07:25:10;;;;;;;19.17;15.40;;;;;;;12.39;99.41;100150.94;7399994;19;20023;-68
2023/04/23 07:27:39;;;;;;;17.08;14.98;;;;;;;12.41;99.49;100148.28;7397809;19;20078;-69
2023/04/23 07:30:09;;;;;;;18.63;14.93;;;;;;;12.40;99.81;100146.56;7399782;19;20026;-68
2023/04/23 07:32:37;;;;;;;18.65;14.93;;;;;;;12.41;99.77;100150.91;7399885;19;20018;-68
2023/04/23 07:35:07;;;;;;;23.92;16.95;;;;;;;12.44;99.86;100147.31;7397515;19;20027;-69
2023/04/23 07:37:35;;;;;;;16.92;14.90;;;;;;;12.46;99.96;100154.22;7399878;19;20074;-69
2023/04/23 07:40:04;;;;;;;15.80;14.20;;;;;;;12.49;99.79;100156.72;7399329;19;20473;-69
2023/04/23 07:42:36;;;;;;;17.42;13.48;;;;;;;12.51;99.75;100161.91;7398022;19;20045;-68
2023/04/23 07:45:04;;;;;;;17.85;13.48;;;;;;;12.52;99.64;100159.25;7397477;19;20485;-68
2023/04/23 07:47:33;;;;;;;17.45;13.90;;;;;;;12.54;99.68;100161.81;7399876;19;20478;-69
2023/04/23 07:50:01;;;;;;;17.83;13.40;;;;;;;12.58;99.45;100166.03;7396978;19;20395;-68
2023/04/23 07:52:30;;;;;;;16.52;13.95;;;;;;;12.61;99.85;100165.91;7396837;19;20026;-68
2023/04/23 07:54:58;;;;;;;16.05;14.40;;;;;;;12.66;99.76;100165.72;7399358;19;20034;-68
2023/04/23 07:57:27;;;;;;;16.35;13.90;;;;;;;12.72;99.84;100160.22;7399468;19;20018;-69
2023/04/23 07:59:58;;;;;;;14.23;12.63;;;;;;;12.77;99.90;100155.63;7398955;19;20525;-68
2023/04/23 08:02:27;;;;;;;15.48;13.02;;;;;;;12.83;99.59;100152.75;7398764;19;20459;-69
2023/04/23 08:04:55;;;;;;;12.90;11.27;;;;;;;12.94;99.61;100160.22;7399236;19;20022;-69
2023/04/23 08:07:24;;;;;;;14.48;12.85;;;;;;;13.02;99.63;100158.09;7398673;19;20022;-69
2023/04/23 08:09:52;;;;;;;14.90;11.85;;;;;;;13.12;99.05;100150.69;7398884;19;20036;-69
2023/04/23 08:12:21;;;;;;;16.30;13.32;;;;;;;13.25;99.18;100155.44;7393578;19;20022;-69
2023/04/23 08:14:49;;;;;;;16.85;12.52;;;;;;;13.38;98.22;100151.38;7396466;19;20019;-68
2023/04/23 08:17:20;;;;;;;15.25;12.38;;;;;;;13.52;97.84;100151.66;7398824;19;20023;-69
2023/04/23 08:19:49;;;;;;;12.95;11.60;;;;;;;13.66;97.79;100163.38;7398438;19;20022;-68
2023/04/23 08:22:17;;;;;;;14.30;10.95;;;;;;;13.80;97.64;100152.22;7398148;19;20018;-68
2023/04/23 08:24:46;;;;;;;12.23;9.93;;;;;;;13.93;95.97;100160.44;7395999;19;20022;-68
2023/04/23 08:27:15;;;;;;;12.80;10.43;;;;;;;14.02;95.81;100158.22;7398365;19;20010;-68
2023/04/23 08:29:43;;;;;;;11.80;9.77;;;;;;;14.13;95.30;100155.09;7398099;19;20035;-68
2023/04/23 08:32:12;;;;;;;12.68;9.30;;;;;;;14.24;95.11;100146.72;7395974;19;20422;-68
2023/04/23 08:34:43;;;;;;;10.52;9.13;;;;;;;14.32;94.82;100149.00;7395665;19;20031;-69
2023/04/23 08:37:11;;;;;;;10.57;8.30;;;;;;;14.44;94.12;100151.03;7397661;19;20018;-68
2023/04/23 08:39:40;;;;;;;11.75;8.43;;;;;;;14.53;93.48;100149.72;7397835;19;20018;-68
2023/04/23 08:42:14;;;;;;;9.00;7.68;;;;;;;14.65;94.34;100156.25;7398013;19;20039;-68
2023/04/23 08:44:44;;;;;;;8.75;7.85;;;;;;;14.75;93.48;100159.31;7395036;19;20473;-68
2023/04/23 08:47:16;;;;;;;12.70;8.70;;;;;;;14.80;92.23;100158.16;7397634;19;20019;-69
2023/04/23 08:49:49;;;;;;;8.40;7.50;;;;;;;14.82;91.24;100169.50;7397971;19;20182;-68
2023/04/23 08:52:20;;;;;;;10.40;8.30;;;;;;;14.79;91.40;100160.88;7395967;19;20481;-68
2023/04/23 08:54:52;;;;;;;8.73;7.65;;;;;;;14.76;90.66;100166.28;7397106;19;20018;-68
2023/04/23 08:57:21;;;;;;;10.23;7.80;;;;;;;14.75;91.93;100170.72;7397052;19;20376;-69
2023/04/23 08:59:49;;;;;;;7.88;7.05;;;;;;;14.71;91.90;100169.16;7397152;19;20033;-68
2023/04/23 09:02:19;;;;;;;9.93;6.85;;;;;;;14.65;90.62;100177.38;7397153;19;20057;-68
2023/04/23 09:04:53;;;;;;;7.78;6.32;;;;;;;14.55;88.99;100190.13;7395085;19;20026;-68
2023/04/23 09:07:21;;;;;;;9.63;8.48;;;;;;;14.40;84.51;100209.31;7396664;19;20018;-69
2023/04/23 09:09:50;;;;;;;10.38;9.27;;;;;;;14.13;82.46;100197.31;7396997;19;20426;-69
2023/04/23 09:12:19;;;;;;;11.75;10.50;;;;;;;13.81;82.77;100204.91;7394809;19;20006;-68
2023/04/23 09:14:55;;;;;;;13.02;11.73;;;;;;;13.51;86.44;100204.44;7394518;19;20380;-67
2023/04/23 09:17:24;;;;;;;14.27;12.25;;;;;;;13.27;88.84;100208.91;7397176;19;20024;-69
2023/04/23 09:19:56;;;;;;;15.38;12.88;;;;;;;13.00;87.97;100215.28;7396244;19;20384;-69
2023/04/23 09:22:41;;;;;;;15.07;12.15;;;;;;;12.81;89.31;100217.75;7393624;19;20010;-69
2023/04/23 09:25:11;;;;;;;15.68;13.45;;;;;;;12.66;91.29;100228.88;7396489;19;20018;-69
2023/04/23 09:27:40;;;;;;;16.98;14.13;;;;;;;12.50;92.36;100232.09;7396861;19;20125;-70
2023/04/23 09:30:11;;;;;;;17.20;14.48;;;;;;;12.35;93.39;100230.06;7396307;19;20018;-70
2023/04/23 09:32:41;;;;;;;17.92;14.63;;;;;;;12.24;94.12;100233.06;7394975;19;20031;-70
2023/04/23 09:35:15;;;;;;;18.77;14.63;;;;;;;12.14;94.59;100229.06;7395691;19;20369;-70
2023/04/23 09:37:47;;;;;;;21.70;17.27;;;;;;;12.08;95.48;100235.44;7396504;19;20018;-70
2023/04/23 09:40:16;;;;;;;21.42;16.13;;;;;;;12.06;95.93;100232.00;7396369;19;20022;-70
2023/04/23 09:42:51;;;;;;;20.27;16.92;;;;;;;12.06;96.21;100221.47;7395703;19;20039;-69
2023/04/23 09:45:20;;;;;;;20.58;16.20;;;;;;;12.09;95.98;100216.09;7394842;19;20070;-71
2023/04/23 09:47:53;;;;;;;20.27;16.25;;;;;;;12.11;96.21;100227.41;7394053;19;20033;-70
2023/04/23 09:50:34;;;;;;;20.77;16.23;;;;;;;12.14;96.14;100221.19;7394016;19;20018;-69
2023/04/23 09:53:03;;;;;;;21.73;17.20;;;;;;;12.17;96.19;100235.09;7394328;19;20113;-71
2023/04/23 09:55:34;;;;;;;18.67;14.45;;;;;;;12.20;95.41;100231.47;7395570;19;20026;-69
2023/04/23 09:58:04;;;;;;;18.35;13.63;;;;;;;12.20;95.99;100232.31;7395848;19;20034;-71
2023/04/23 10:00:36;;;;;;;18.30;14.50;;;;;;;12.25;95.30;100239.22;7394163;19;20415;-71
2023/04/23 10:03:05;;;;;;;16.85;14.13;;;;;;;12.26;95.03;100241.78;7395918;19;20022;-70
2023/04/23 10:05:40;;;;;;;20.17;15.98;;;;;;;12.32;96.00;100245.94;7395535;19;20014;-70
2023/04/23 10:08:09;;;;;;;18.95;14.57;;;;;;;12.39;96.31;100252.69;7396253;19;20030;-70
2023/04/23 10:10:37;;;;;;;18.88;14.80;;;;;;;12.45;96.31;100252.47;7393149;19;20037;-70
2023/04/23 10:13:06;;;;;;;19.23;15.52;;;;;;;12.49;95.89;100248.81;7393207;19;20015;-69
2023/04/23 10:15:36;;;;;;;16.17;13.70;;;;;;;12.51;96.39;100247.00;7394680;19;20517;-69
2023/04/23 10:18:05;;;;;;;20.35;15.88;;;;;;;12.55;96.87;100253.00;7394969;19;20028;-69
2023/04/23 10:20:37;;;;;;;20.70;16.10;;;;;;;12.63;97.02;100242.19;7395058;19;20026;-70
2023/04/23 10:23:07;;;;;;;16.00;14.27;;;;;;;12.69;95.89;100234.03;7394947;19;20022;-69
2023/04/23 10:25:37;;;;;;;16.40;13.50;;;;;;;12.77;96.12;100226.69;7395201;19;20022;-69
2023/04/23 10:28:07;;;;;;;19.00;15.10;;;;;;;12.90;95.56;100226.22;7395030;19;20018;-69
2023/04/23 10:30:38;;;;;;;17.58;14.07;;;;;;;13.01;94.49;100237.19;7394532;19;20014;-69
2023/04/23 10:33:07;;;;;;;18.17;14.13;;;;;;;13.15;94.10;100234.81;7392628;19;20026;-69
2023/04/23 10:35:38;;;;;;;17.55;14.32;;;;;;;13.33;94.00;100238.50;7399858;19;20019;-68
2023/04/23 10:38:07;;;;;;;15.70;13.52;;;;;;;13.47;91.88;100222.16;7399428;19;20031;-69
2023/04/23 10:40:39;;;;;;;16.88;13.35;;;;;;;13.59;91.74;100223.41;7402167;19;20010;-70
2023/04/23 10:43:08;;;;;;;15.00;12.82;;;;;;;13.70;90.23;100222.97;7400880;19;20036;-70
2023/04/23 10:45:36;;;;;;;14.57;12.18;;;;;;;13.79;89.82;100226.97;7402010;19;20431;-70
2023/04/23 10:48:07;;;;;;;16.50;12.98;;;;;;;13.88;88.73;100231.84;7401526;19;20035;-70
2023/04/23 10:50:40;;;;;;;14.45;12.18;;;;;;;13.93;88.40;100234.28;7401394;19;20018;-70
2023/04/23 10:53:20;;;;;;;13.70;11.75;;;;;;;14.04;87.70;100225.88;7398846;19;20022;-70
2023/04/23 10:55:49;;;;;;;13.63;11.43;;;;;;;14.20;88.70;100220.78;7401938;19;20034;-71
2023/04/23 10:58:19;;;;;;;14.00;11.77;;;;;;;14.38;88.50;100219.97;7402259;19;20028;-70
2023/04/23 11:00:49;;;;;;;14.98;12.25;;;;;;;14.53;86.73;100221.00;7401611;19;20022;-71
2023/04/23 11:03:40;;;;;;;13.20;11.57;;;;;;;14.64;81.54;100215.22;7398356;19;20049;-71
2023/04/23 11:06:15;;;;;;;13.48;11.15;;;;;;;14.73;84.48;100209.53;7400983;19;20029;-70
2023/04/23 11:08:55;;;;;;;12.82;11.40;;;;;;;14.86;85.51;100204.56;7400855;19;20018;-70
2023/04/23 11:11:40;;;;;;;15.40;12.32;;;;;;;14.97;81.73;100218.09;7398073;19;20019;-70
2023/04/23 11:14:15;;;;;;;11.80;9.57;;;;;;;15.09;81.61;100226.31;7398456;19;20391;-70
2023/04/23 11:16:44;;;;;;;10.55;9.13;;;;;;;15.17;81.83;100223.34;7397118;19;20015;-68
2023/04/23 11:19:14;;;;;;;11.10;9.30;;;;;;;15.26;81.91;100236.91;7400310;19;20462;-70
2023/04/23 11:22:04;;;;;;;10.13;8.35;;;;;;;15.34;78.24;100236.53;7398069;19;20039;-67
2023/04/23 11:24:35;;;;;;;9.55;8.55;;;;;;;15.45;81.90;100233.38;7397079;19;20374;-68